sensor_id;sensor_type;location;lat;lon;timestamp;P1;durP1;ratioP1;P2;durP2;ratioP2
1258;SDS011;619;51.472;6.628;2023-02-01T00:00:51;13.40;;;4.53;;
1258;SDS011;619;51.472;6.628;2023-02-01T00:03:17;15.27;;;5.97;;
1258;SDS011;619;51.472;6.628;2023-02-01T00:05:44;8.60;;;4.67;;
1258;SDS011;619;51.472;6.628;2023-02-01T00:08:10;11.00;;;4.97;;
1258;SDS011;619;51.472;6.628;2023-02-01T00:10:36;15.50;;;5.20;;
1258;SDS011;619;51.472;6.628;2023-02-01T00:13:06;13.47;;;5.70;;
1258;SDS011;619;51.472;6.628;2023-02-01T00:15:32;15.37;;;5.40;;
1258;SDS011;619;51.472;6.628;2023-02-01T00:17:58;17.17;;;5.23;;
1258;SDS011;619;51.472;6.628;2023-02-01T00:20:27;16.07;;;5.20;;
1258;SDS011;619;51.472;6.628;2023-02-01T00:22:53;8.97;;;5.03;;
1258;SDS011;619;51.472;6.628;2023-02-01T00:25:19;9.80;;;4.80;;
1258;SDS011;619;51.472;6.628;2023-02-01T00:27:50;12.20;;;5.40;;
1258;SDS011;619;51.472;6.628;2023-02-01T00:30:18;13.47;;;5.10;;
1258;SDS011;619;51.472;6.628;2023-02-01T00:32:44;11.40;;;5.67;;
1258;SDS011;619;51.472;6.628;2023-02-01T00:35:12;13.27;;;6.13;;
1258;SDS011;619;51.472;6.628;2023-02-01T00:37:38;12.23;;;5.30;;
1258;SDS011;619;51.472;6.628;2023-02-01T00:40:05;20.73;;;5.50;;
1258;SDS011;619;51.472;6.628;2023-02-01T00:42:33;17.57;;;6.07;;
1258;SDS011;619;51.472;6.628;2023-02-01T00:44:59;16.53;;;6.40;;
1258;SDS011;619;51.472;6.628;2023-02-01T00:47:28;11.17;;;5.90;;
1258;SDS011;619;51.472;6.628;2023-02-01T00:49:55;16.47;;;6.20;;
1258;SDS011;619;51.472;6.628;2023-02-01T00:52:21;15.60;;;6.60;;
1258;SDS011;619;51.472;6.628;2023-02-01T00:54:47;11.87;;;6.70;;
1258;SDS011;619;51.472;6.628;2023-02-01T00:57:13;15.13;;;7.47;;
1258;SDS011;619;51.472;6.628;2023-02-01T00:59:41;9.70;;;5.40;;
1258;SDS011;619;51.472;6.628;2023-02-01T01:02:07;11.90;;;6.40;;
1258;SDS011;619;51.472;6.628;2023-02-01T01:04:35;12.70;;;7.53;;
1258;SDS011;619;51.472;6.628;2023-02-01T01:07:02;15.80;;;6.67;;
1258;SDS011;619;51.472;6.628;2023-02-01T01:09:28;16.03;;;7.40;;
1258;SDS011;619;51.472;6.628;2023-02-01T01:11:54;11.20;;;7.03;;
1258;SDS011;619;51.472;6.628;2023-02-01T01:14:20;11.97;;;6.47;;
1258;SDS011;619;51.472;6.628;2023-02-01T01:16:46;21.27;;;7.00;;
1258;SDS011;619;51.472;6.628;2023-02-01T01:19:12;13.30;;;7.00;;
1258;SDS011;619;51.472;6.628;2023-02-01T01:21:38;16.73;;;6.67;;
1258;SDS011;619;51.472;6.628;2023-02-01T01:24:04;12.47;;;6.33;;
1258;SDS011;619;51.472;6.628;2023-02-01T01:26:32;18.97;;;8.53;;
1258;SDS011;619;51.472;6.628;2023-02-01T01:28:59;15.80;;;6.67;;
1258;SDS011;619;51.472;6.628;2023-02-01T01:31:25;11.93;;;6.40;;
1258;SDS011;619;51.472;6.628;2023-02-01T01:33:53;17.57;;;6.70;;
1258;SDS011;619;51.472;6.628;2023-02-01T01:36:19;17.33;;;7.73;;
1258;SDS011;619;51.472;6.628;2023-02-01T01:38:45;14.07;;;7.03;;
1258;SDS011;619;51.472;6.628;2023-02-01T01:41:13;12.90;;;5.73;;
1258;SDS011;619;51.472;6.628;2023-02-01T01:46:18;14.80;;;5.60;;
1258;SDS011;619;51.472;6.628;2023-02-01T01:48:45;11.10;;;5.50;;
1258;SDS011;619;51.472;6.628;2023-02-01T01:51:13;8.47;;;4.03;;
1258;SDS011;619;51.472;6.628;2023-02-01T01:53:43;11.70;;;4.33;;
1258;SDS011;619;51.472;6.628;2023-02-01T01:56:10;13.20;;;5.27;;
1258;SDS011;619;51.472;6.628;2023-02-01T01:58:37;14.17;;;5.50;;
1258;SDS011;619;51.472;6.628;2023-02-01T02:01:03;12.37;;;4.83;;
1258;SDS011;619;51.472;6.628;2023-02-01T02:03:38;12.70;;;4.30;;
1258;SDS011;619;51.472;6.628;2023-02-01T02:06:05;13.50;;;5.57;;
1258;SDS011;619;51.472;6.628;2023-02-01T02:08:38;10.33;;;3.77;;
1258;SDS011;619;51.472;6.628;2023-02-01T02:11:04;15.47;;;6.00;;
1258;SDS011;619;51.472;6.628;2023-02-01T02:13:34;17.53;;;4.87;;
1258;SDS011;619;51.472;6.628;2023-02-01T02:16:24;10.00;;;3.67;;
1258;SDS011;619;51.472;6.628;2023-02-01T02:26:54;12.70;;;4.00;;
1258;SDS011;619;51.472;6.628;2023-02-01T02:31:58;10.90;;;4.07;;
1258;SDS011;619;51.472;6.628;2023-02-01T02:42:43;9.57;;;4.00;;
1258;SDS011;619;51.472;6.628;2023-02-01T02:48:37;14.20;;;4.10;;
1258;SDS011;619;51.472;6.628;2023-02-01T02:51:30;6.43;;;2.90;;
1258;SDS011;619;51.472;6.628;2023-02-01T02:54:19;10.70;;;3.93;;
1258;SDS011;619;51.472;6.628;2023-02-01T02:57:05;17.40;;;3.93;;
1258;SDS011;619;51.472;6.628;2023-02-01T02:59:51;12.80;;;4.40;;
1258;SDS011;619;51.472;6.628;2023-02-01T03:02:37;6.33;;;2.77;;
1258;SDS011;619;51.472;6.628;2023-02-01T03:05:22;10.30;;;4.37;;
1258;SDS011;619;51.472;6.628;2023-02-01T03:10:18;12.43;;;4.30;;
1258;SDS011;619;51.472;6.628;2023-02-01T03:12:46;14.70;;;4.07;;
1258;SDS011;619;51.472;6.628;2023-02-01T03:15:29;11.87;;;4.70;;
1258;SDS011;619;51.472;6.628;2023-02-01T03:17:57;11.27;;;4.57;;
1258;SDS011;619;51.472;6.628;2023-02-01T03:20:25;13.03;;;4.30;;
1258;SDS011;619;51.472;6.628;2023-02-01T03:22:53;14.23;;;4.37;;
1258;SDS011;619;51.472;6.628;2023-02-01T03:25:21;10.93;;;4.60;;
1258;SDS011;619;51.472;6.628;2023-02-01T03:27:49;9.57;;;4.37;;
1258;SDS011;619;51.472;6.628;2023-02-01T03:30:19;13.60;;;5.00;;
1258;SDS011;619;51.472;6.628;2023-02-01T03:32:47;16.10;;;4.43;;
1258;SDS011;619;51.472;6.628;2023-02-01T03:38:02;10.47;;;4.50;;
1258;SDS011;619;51.472;6.628;2023-02-01T03:40:30;9.20;;;4.50;;
1258;SDS011;619;51.472;6.628;2023-02-01T03:42:59;11.73;;;4.93;;
1258;SDS011;619;51.472;6.628;2023-02-01T03:45:28;14.30;;;5.03;;
1258;SDS011;619;51.472;6.628;2023-02-01T03:47:57;12.50;;;4.30;;
1258;SDS011;619;51.472;6.628;2023-02-01T03:50:25;12.20;;;4.70;;
1258;SDS011;619;51.472;6.628;2023-02-01T03:52:56;13.30;;;4.13;;
1258;SDS011;619;51.472;6.628;2023-02-01T03:55:25;10.03;;;4.00;;
1258;SDS011;619;51.472;6.628;2023-02-01T03:57:57;11.40;;;4.07;;
1258;SDS011;619;51.472;6.628;2023-02-01T04:00:25;10.77;;;3.93;;
1258;SDS011;619;51.472;6.628;2023-02-01T04:02:51;16.43;;;4.50;;
1258;SDS011;619;51.472;6.628;2023-02-01T04:05:17;13.97;;;4.10;;
1258;SDS011;619;51.472;6.628;2023-02-01T04:07:43;10.70;;;3.40;;
1258;SDS011;619;51.472;6.628;2023-02-01T04:10:10;10.20;;;3.73;;
1258;SDS011;619;51.472;6.628;2023-02-01T04:12:36;11.93;;;3.90;;
1258;SDS011;619;51.472;6.628;2023-02-01T04:15:07;21.87;;;4.70;;
1258;SDS011;619;51.472;6.628;2023-02-01T04:17:38;12.93;;;4.50;;
1258;SDS011;619;51.472;6.628;2023-02-01T04:20:04;9.93;;;3.90;;
1258;SDS011;619;51.472;6.628;2023-02-01T04:22:34;14.40;;;4.70;;
1258;SDS011;619;51.472;6.628;2023-02-01T04:25:00;19.67;;;5.10;;
1258;SDS011;619;51.472;6.628;2023-02-01T04:27:26;10.83;;;3.73;;
1258;SDS011;619;51.472;6.628;2023-02-01T04:29:54;15.90;;;5.57;;
1258;SDS011;619;51.472;6.628;2023-02-01T04:32:20;15.23;;;5.53;;
1258;SDS011;619;51.472;6.628;2023-02-01T04:34:49;16.60;;;3.90;;
1258;SDS011;619;51.472;6.628;2023-02-01T04:37:15;14.20;;;5.20;;
1258;SDS011;619;51.472;6.628;2023-02-01T04:39:41;13.40;;;4.60;;
1258;SDS011;619;51.472;6.628;2023-02-01T04:42:07;14.37;;;4.83;;
1258;SDS011;619;51.472;6.628;2023-02-01T04:44:33;16.73;;;6.10;;
1258;SDS011;619;51.472;6.628;2023-02-01T04:47:01;10.47;;;4.07;;
1258;SDS011;619;51.472;6.628;2023-02-01T04:49:28;11.80;;;3.97;;
1258;SDS011;619;51.472;6.628;2023-02-01T04:51:53;17.40;;;5.40;;
1258;SDS011;619;51.472;6.628;2023-02-01T04:54:19;18.50;;;4.17;;
1258;SDS011;619;51.472;6.628;2023-02-01T04:56:46;19.17;;;4.50;;
1258;SDS011;619;51.472;6.628;2023-02-01T04:59:12;13.90;;;4.03;;
1258;SDS011;619;51.472;6.628;2023-02-01T05:01:38;13.43;;;4.20;;
1258;SDS011;619;51.472;6.628;2023-02-01T05:04:04;10.77;;;3.97;;
1258;SDS011;619;51.472;6.628;2023-02-01T05:06:30;14.63;;;4.93;;
1258;SDS011;619;51.472;6.628;2023-02-01T05:08:58;18.93;;;5.20;;
1258;SDS011;619;51.472;6.628;2023-02-01T05:11:24;13.23;;;4.20;;
1258;SDS011;619;51.472;6.628;2023-02-01T05:14:11;16.40;;;3.97;;
1258;SDS011;619;51.472;6.628;2023-02-01T05:16:37;12.60;;;4.40;;
1258;SDS011;619;51.472;6.628;2023-02-01T05:19:03;11.17;;;4.60;;
1258;SDS011;619;51.472;6.628;2023-02-01T05:21:31;10.93;;;3.97;;
1258;SDS011;619;51.472;6.628;2023-02-01T05:24:00;14.30;;;4.00;;
1258;SDS011;619;51.472;6.628;2023-02-01T05:26:35;15.53;;;5.20;;
1258;SDS011;619;51.472;6.628;2023-02-01T05:29:06;10.40;;;3.47;;
1258;SDS011;619;51.472;6.628;2023-02-01T05:31:33;20.17;;;5.47;;
1258;SDS011;619;51.472;6.628;2023-02-01T05:34:01;9.63;;;3.07;;
1258;SDS011;619;51.472;6.628;2023-02-01T05:36:28;22.07;;;4.73;;
1258;SDS011;619;51.472;6.628;2023-02-01T05:38:54;12.00;;;3.00;;
1258;SDS011;619;51.472;6.628;2023-02-01T05:41:20;20.10;;;6.30;;
1258;SDS011;619;51.472;6.628;2023-02-01T05:43:51;13.03;;;4.30;;
1258;SDS011;619;51.472;6.628;2023-02-01T05:46:17;12.67;;;4.63;;
1258;SDS011;619;51.472;6.628;2023-02-01T05:48:45;12.20;;;4.30;;
1258;SDS011;619;51.472;6.628;2023-02-01T05:51:11;14.63;;;4.57;;
1258;SDS011;619;51.472;6.628;2023-02-01T05:53:37;12.40;;;3.93;;
1258;SDS011;619;51.472;6.628;2023-02-01T05:56:06;20.97;;;5.13;;
1258;SDS011;619;51.472;6.628;2023-02-01T05:58:32;16.23;;;5.07;;
1258;SDS011;619;51.472;6.628;2023-02-01T06:01:02;15.63;;;3.70;;
1258;SDS011;619;51.472;6.628;2023-02-01T06:03:28;17.00;;;4.90;;
1258;SDS011;619;51.472;6.628;2023-02-01T06:05:55;13.33;;;5.40;;
1258;SDS011;619;51.472;6.628;2023-02-01T06:08:21;10.40;;;3.10;;
1258;SDS011;619;51.472;6.628;2023-02-01T06:10:49;11.03;;;3.50;;
1258;SDS011;619;51.472;6.628;2023-02-01T06:13:17;8.83;;;3.40;;
1258;SDS011;619;51.472;6.628;2023-02-01T06:15:45;12.00;;;3.77;;
1258;SDS011;619;51.472;6.628;2023-02-01T06:18:11;21.90;;;5.63;;
1258;SDS011;619;51.472;6.628;2023-02-01T06:20:37;16.63;;;4.10;;
1258;SDS011;619;51.472;6.628;2023-02-01T06:23:04;16.87;;;4.40;;
1258;SDS011;619;51.472;6.628;2023-02-01T06:25:32;21.97;;;4.97;;
1258;SDS011;619;51.472;6.628;2023-02-01T06:28:01;16.23;;;5.00;;
1258;SDS011;619;51.472;6.628;2023-02-01T06:30:27;13.33;;;4.87;;
1258;SDS011;619;51.472;6.628;2023-02-01T06:32:53;11.07;;;4.53;;
1258;SDS011;619;51.472;6.628;2023-02-01T06:35:19;14.30;;;4.60;;
1258;SDS011;619;51.472;6.628;2023-02-01T06:37:45;12.47;;;4.47;;
1258;SDS011;619;51.472;6.628;2023-02-01T06:40:11;13.20;;;4.90;;
1258;SDS011;619;51.472;6.628;2023-02-01T06:42:40;17.00;;;4.30;;
1258;SDS011;619;51.472;6.628;2023-02-01T06:45:06;13.60;;;3.70;;
1258;SDS011;619;51.472;6.628;2023-02-01T06:47:32;11.83;;;4.70;;
1258;SDS011;619;51.472;6.628;2023-02-01T06:49:58;17.03;;;4.80;;
1258;SDS011;619;51.472;6.628;2023-02-01T06:52:24;13.90;;;4.10;;
1258;SDS011;619;51.472;6.628;2023-02-01T06:54:50;16.77;;;3.77;;
1258;SDS011;619;51.472;6.628;2023-02-01T06:57:16;13.57;;;4.73;;
1258;SDS011;619;51.472;6.628;2023-02-01T06:59:44;17.13;;;4.07;;
1258;SDS011;619;51.472;6.628;2023-02-01T07:02:11;14.70;;;4.80;;
1258;SDS011;619;51.472;6.628;2023-02-01T07:04:39;10.80;;;4.40;;
1258;SDS011;619;51.472;6.628;2023-02-01T07:07:05;16.73;;;3.80;;
1258;SDS011;619;51.472;6.628;2023-02-01T07:09:31;12.73;;;4.80;;
1258;SDS011;619;51.472;6.628;2023-02-01T07:11:57;13.40;;;4.57;;
1258;SDS011;619;51.472;6.628;2023-02-01T07:14:23;13.20;;;4.53;;
1258;SDS011;619;51.472;6.628;2023-02-01T07:16:53;18.50;;;5.83;;
1258;SDS011;619;51.472;6.628;2023-02-01T07:19:19;9.70;;;4.27;;
1258;SDS011;619;51.472;6.628;2023-02-01T07:21:45;10.50;;;4.50;;
1258;SDS011;619;51.472;6.628;2023-02-01T07:24:11;12.23;;;4.57;;
1258;SDS011;619;51.472;6.628;2023-02-01T07:26:42;20.17;;;4.47;;
1258;SDS011;619;51.472;6.628;2023-02-01T07:29:08;23.33;;;5.63;;
1258;SDS011;619;51.472;6.628;2023-02-01T07:31:34;17.00;;;5.23;;
1258;SDS011;619;51.472;6.628;2023-02-01T07:34:00;13.30;;;5.20;;
1258;SDS011;619;51.472;6.628;2023-02-01T07:36:29;14.90;;;5.10;;
1258;SDS011;619;51.472;6.628;2023-02-01T07:38:56;17.03;;;4.67;;
1258;SDS011;619;51.472;6.628;2023-02-01T07:41:22;18.90;;;5.37;;
1258;SDS011;619;51.472;6.628;2023-02-01T07:43:48;13.90;;;4.40;;
1258;SDS011;619;51.472;6.628;2023-02-01T07:46:17;16.30;;;7.13;;
1258;SDS011;619;51.472;6.628;2023-02-01T07:48:43;20.03;;;5.90;;
1258;SDS011;619;51.472;6.628;2023-02-01T07:51:10;14.10;;;4.27;;
1258;SDS011;619;51.472;6.628;2023-02-01T07:53:37;18.43;;;4.97;;
1258;SDS011;619;51.472;6.628;2023-02-01T07:56:03;15.27;;;5.17;;
1258;SDS011;619;51.472;6.628;2023-02-01T07:58:29;12.87;;;4.70;;
1258;SDS011;619;51.472;6.628;2023-02-01T08:00:57;15.40;;;5.43;;
1258;SDS011;619;51.472;6.628;2023-02-01T08:03:42;25.37;;;5.27;;
1258;SDS011;619;51.472;6.628;2023-02-01T08:06:08;12.37;;;4.57;;
1258;SDS011;619;51.472;6.628;2023-02-01T08:08:36;14.63;;;5.03;;
1258;SDS011;619;51.472;6.628;2023-02-01T08:11:03;22.67;;;4.57;;
1258;SDS011;619;51.472;6.628;2023-02-01T08:13:30;13.60;;;4.57;;
1258;SDS011;619;51.472;6.628;2023-02-01T08:16:00;12.87;;;4.90;;
1258;SDS011;619;51.472;6.628;2023-02-01T08:18:29;14.63;;;5.23;;
1258;SDS011;619;51.472;6.628;2023-02-01T08:20:55;16.10;;;4.70;;
1258;SDS011;619;51.472;6.628;2023-02-01T08:23:21;15.47;;;4.67;;
1258;SDS011;619;51.472;6.628;2023-02-01T08:25:50;16.97;;;4.50;;
1258;SDS011;619;51.472;6.628;2023-02-01T08:28:18;9.00;;;3.13;;
1258;SDS011;619;51.472;6.628;2023-02-01T08:30:47;16.27;;;5.77;;
1258;SDS011;619;51.472;6.628;2023-02-01T08:33:13;21.27;;;5.93;;
1258;SDS011;619;51.472;6.628;2023-02-01T08:35:39;16.87;;;4.77;;
1258;SDS011;619;51.472;6.628;2023-02-01T08:38:05;20.77;;;5.07;;
1258;SDS011;619;51.472;6.628;2023-02-01T08:40:33;16.13;;;4.70;;
1258;SDS011;619;51.472;6.628;2023-02-01T08:42:59;25.10;;;6.40;;
1258;SDS011;619;51.472;6.628;2023-02-01T08:45:26;16.10;;;4.37;;
1258;SDS011;619;51.472;6.628;2023-02-01T08:47:54;10.77;;;4.27;;
1258;SDS011;619;51.472;6.628;2023-02-01T08:50:20;16.30;;;4.37;;
1258;SDS011;619;51.472;6.628;2023-02-01T08:52:47;15.40;;;4.60;;
1258;SDS011;619;51.472;6.628;2023-02-01T08:55:13;22.53;;;6.30;;
1258;SDS011;619;51.472;6.628;2023-02-01T08:57:39;12.53;;;4.57;;
1258;SDS011;619;51.472;6.628;2023-02-01T09:00:09;18.70;;;5.50;;
1258;SDS011;619;51.472;6.628;2023-02-01T09:02:36;19.00;;;5.23;;
1258;SDS011;619;51.472;6.628;2023-02-01T09:05:03;15.80;;;5.10;;
1258;SDS011;619;51.472;6.628;2023-02-01T09:07:29;18.50;;;4.77;;
1258;SDS011;619;51.472;6.628;2023-02-01T09:09:55;13.43;;;4.57;;
1258;SDS011;619;51.472;6.628;2023-02-01T09:12:27;17.60;;;5.17;;
1258;SDS011;619;51.472;6.628;2023-02-01T09:14:53;16.53;;;5.57;;
1258;SDS011;619;51.472;6.628;2023-02-01T09:17:19;10.70;;;4.40;;
1258;SDS011;619;51.472;6.628;2023-02-01T09:19:45;19.00;;;5.50;;
1258;SDS011;619;51.472;6.628;2023-02-01T09:22:11;15.93;;;4.10;;
1258;SDS011;619;51.472;6.628;2023-02-01T09:24:37;14.50;;;5.20;;
1258;SDS011;619;51.472;6.628;2023-02-01T09:27:03;12.77;;;4.97;;
1258;SDS011;619;51.472;6.628;2023-02-01T09:29:29;12.40;;;3.97;;
1258;SDS011;619;51.472;6.628;2023-02-01T09:31:55;16.80;;;5.83;;
1258;SDS011;619;51.472;6.628;2023-02-01T09:34:21;13.13;;;4.60;;
1258;SDS011;619;51.472;6.628;2023-02-01T09:36:47;13.33;;;3.57;;
1258;SDS011;619;51.472;6.628;2023-02-01T09:39:13;14.77;;;5.00;;
1258;SDS011;619;51.472;6.628;2023-02-01T09:46:56;19.00;;;4.47;;
1258;SDS011;619;51.472;6.628;2023-02-01T09:49:29;15.03;;;4.93;;
1258;SDS011;619;51.472;6.628;2023-02-01T09:51:56;17.90;;;5.80;;
1258;SDS011;619;51.472;6.628;2023-02-01T09:54:26;12.20;;;4.03;;
1258;SDS011;619;51.472;6.628;2023-02-01T09:56:53;10.03;;;3.93;;
1258;SDS011;619;51.472;6.628;2023-02-01T10:01:58;15.50;;;5.33;;
1258;SDS011;619;51.472;6.628;2023-02-01T10:04:25;13.03;;;4.60;;
1258;SDS011;619;51.472;6.628;2023-02-01T10:27:38;17.57;;;4.60;;
1258;SDS011;619;51.472;6.628;2023-02-01T10:30:24;11.00;;;4.83;;
1258;SDS011;619;51.472;6.628;2023-02-01T10:33:01;21.13;;;5.50;;
1258;SDS011;619;51.472;6.628;2023-02-01T10:35:33;13.90;;;4.87;;
1258;SDS011;619;51.472;6.628;2023-02-01T10:38:01;14.90;;;5.00;;
1258;SDS011;619;51.472;6.628;2023-02-01T10:40:28;14.73;;;4.07;;
1258;SDS011;619;51.472;6.628;2023-02-01T10:42:57;14.10;;;4.33;;
1258;SDS011;619;51.472;6.628;2023-02-01T10:45:26;15.20;;;3.97;;
1258;SDS011;619;51.472;6.628;2023-02-01T10:47:53;9.93;;;4.20;;
1258;SDS011;619;51.472;6.628;2023-02-01T10:55:37;12.57;;;5.00;;
1258;SDS011;619;51.472;6.628;2023-02-01T10:58:04;15.10;;;5.07;;
1258;SDS011;619;51.472;6.628;2023-02-01T11:00:44;10.73;;;4.67;;
1258;SDS011;619;51.472;6.628;2023-02-01T11:03:21;12.37;;;4.20;;
1258;SDS011;619;51.472;6.628;2023-02-01T11:05:47;12.63;;;3.90;;
1258;SDS011;619;51.472;6.628;2023-02-01T11:08:15;15.00;;;5.33;;
1258;SDS011;619;51.472;6.628;2023-02-01T11:10:42;14.63;;;4.70;;
1258;SDS011;619;51.472;6.628;2023-02-01T11:13:16;16.07;;;4.70;;
1258;SDS011;619;51.472;6.628;2023-02-01T11:15:43;10.90;;;4.70;;
1258;SDS011;619;51.472;6.628;2023-02-01T11:18:18;12.97;;;3.87;;
1258;SDS011;619;51.472;6.628;2023-02-01T11:20:44;13.17;;;4.87;;
1258;SDS011;619;51.472;6.628;2023-02-01T11:23:18;14.77;;;4.60;;
1258;SDS011;619;51.472;6.628;2023-02-01T11:25:54;11.23;;;3.53;;
1258;SDS011;619;51.472;6.628;2023-02-01T11:28:22;8.47;;;3.40;;
1258;SDS011;619;51.472;6.628;2023-02-01T11:30:49;18.50;;;6.00;;
1258;SDS011;619;51.472;6.628;2023-02-01T11:33:20;15.90;;;5.87;;
1258;SDS011;619;51.472;6.628;2023-02-01T11:35:54;11.47;;;4.43;;
1258;SDS011;619;51.472;6.628;2023-02-01T11:38:26;8.07;;;3.70;;
1258;SDS011;619;51.472;6.628;2023-02-01T11:40:52;10.23;;;3.50;;
1258;SDS011;619;51.472;6.628;2023-02-01T11:43:25;14.70;;;5.53;;
1258;SDS011;619;51.472;6.628;2023-02-01T11:45:59;12.80;;;5.60;;
1258;SDS011;619;51.472;6.628;2023-02-01T11:48:26;17.77;;;4.60;;
1258;SDS011;619;51.472;6.628;2023-02-01T11:58:58;13.53;;;5.07;;
1258;SDS011;619;51.472;6.628;2023-02-01T12:22:13;11.83;;;3.97;;
1258;SDS011;619;51.472;6.628;2023-02-01T12:42:48;9.10;;;3.37;;
1258;SDS011;619;51.472;6.628;2023-02-01T12:45:42;12.43;;;3.73;;
1258;SDS011;619;51.472;6.628;2023-02-01T12:50:43;10.87;;;3.30;;
1258;SDS011;619;51.472;6.628;2023-02-01T12:53:23;10.17;;;2.90;;
1258;SDS011;619;51.472;6.628;2023-02-01T12:55:52;10.57;;;4.80;;
1258;SDS011;619;51.472;6.628;2023-02-01T12:58:22;10.13;;;3.70;;
1258;SDS011;619;51.472;6.628;2023-02-01T13:00:53;6.60;;;2.53;;
1258;SDS011;619;51.472;6.628;2023-02-01T13:03:29;12.67;;;3.27;;
1258;SDS011;619;51.472;6.628;2023-02-01T13:05:59;10.43;;;3.20;;
1258;SDS011;619;51.472;6.628;2023-02-01T13:11:16;13.37;;;3.57;;
1258;SDS011;619;51.472;6.628;2023-02-01T13:16:21;10.70;;;3.17;;
1258;SDS011;619;51.472;6.628;2023-02-01T13:18:52;13.17;;;3.43;;
1258;SDS011;619;51.472;6.628;2023-02-01T13:21:26;11.13;;;3.07;;
1258;SDS011;619;51.472;6.628;2023-02-01T13:23:53;13.87;;;2.63;;
1258;SDS011;619;51.472;6.628;2023-02-01T13:26:19;14.90;;;3.77;;
1258;SDS011;619;51.472;6.628;2023-02-01T13:33:55;16.20;;;3.63;;
1258;SDS011;619;51.472;6.628;2023-02-01T13:42:22;10.30;;;3.40;;
1258;SDS011;619;51.472;6.628;2023-02-01T13:44:37;15.83;;;4.20;;
1258;SDS011;619;51.472;6.628;2023-02-01T13:47:10;15.20;;;3.27;;
1258;SDS011;619;51.472;6.628;2023-02-01T13:49:38;12.17;;;3.43;;
1258;SDS011;619;51.472;6.628;2023-02-01T13:52:06;11.10;;;4.37;;
1258;SDS011;619;51.472;6.628;2023-02-01T13:54:36;16.00;;;4.27;;
1258;SDS011;619;51.472;6.628;2023-02-01T13:57:04;13.23;;;3.20;;
1258;SDS011;619;51.472;6.628;2023-02-01T14:04:48;13.07;;;3.30;;
1258;SDS011;619;51.472;6.628;2023-02-01T14:07:18;9.90;;;3.27;;
1258;SDS011;619;51.472;6.628;2023-02-01T14:09:46;8.20;;;2.87;;
1258;SDS011;619;51.472;6.628;2023-02-01T14:17:42;13.90;;;4.43;;
1258;SDS011;619;51.472;6.628;2023-02-01T14:20:45;13.33;;;3.07;;
1258;SDS011;619;51.472;6.628;2023-02-01T14:23:01;10.50;;;3.00;;
1258;SDS011;619;51.472;6.628;2023-02-01T14:25:32;9.70;;;3.73;;
1258;SDS011;619;51.472;6.628;2023-02-01T14:27:58;8.90;;;2.97;;
1258;SDS011;619;51.472;6.628;2023-02-01T14:30:24;10.57;;;3.30;;
1258;SDS011;619;51.472;6.628;2023-02-01T14:32:50;9.93;;;3.47;;
1258;SDS011;619;51.472;6.628;2023-02-01T14:35:34;13.27;;;3.60;;
1258;SDS011;619;51.472;6.628;2023-02-01T14:38:01;10.83;;;3.50;;
1258;SDS011;619;51.472;6.628;2023-02-01T14:40:29;8.67;;;3.20;;
1258;SDS011;619;51.472;6.628;2023-02-01T14:42:55;12.27;;;3.60;;
1258;SDS011;619;51.472;6.628;2023-02-01T14:47:54;11.53;;;3.40;;
1258;SDS011;619;51.472;6.628;2023-02-01T14:50:25;16.20;;;4.30;;
1258;SDS011;619;51.472;6.628;2023-02-01T14:55:55;7.83;;;2.40;;
1258;SDS011;619;51.472;6.628;2023-02-01T14:58:32;12.47;;;3.47;;
1258;SDS011;619;51.472;6.628;2023-02-01T15:01:02;8.80;;;2.67;;
1258;SDS011;619;51.472;6.628;2023-02-01T15:06:00;9.20;;;3.20;;
1258;SDS011;619;51.472;6.628;2023-02-01T15:08:30;11.80;;;3.80;;
1258;SDS011;619;51.472;6.628;2023-02-01T15:10:57;12.87;;;2.50;;
1258;SDS011;619;51.472;6.628;2023-02-01T15:13:27;13.10;;;3.53;;
1258;SDS011;619;51.472;6.628;2023-02-01T15:16:09;11.13;;;3.27;;
1258;SDS011;619;51.472;6.628;2023-02-01T15:18:38;14.13;;;4.40;;
1258;SDS011;619;51.472;6.628;2023-02-01T15:21:14;6.70;;;2.70;;
1258;SDS011;619;51.472;6.628;2023-02-01T15:23:41;7.30;;;3.70;;
1258;SDS011;619;51.472;6.628;2023-02-01T15:26:07;8.80;;;3.00;;
1258;SDS011;619;51.472;6.628;2023-02-01T15:28:33;14.00;;;3.57;;
1258;SDS011;619;51.472;6.628;2023-02-01T15:31:03;12.70;;;4.27;;
1258;SDS011;619;51.472;6.628;2023-02-01T15:33:31;16.23;;;3.53;;
1258;SDS011;619;51.472;6.628;2023-02-01T15:38:36;10.50;;;2.87;;
1258;SDS011;619;51.472;6.628;2023-02-01T15:41:07;10.63;;;3.90;;
1258;SDS011;619;51.472;6.628;2023-02-01T15:46:31;16.17;;;3.73;;
1258;SDS011;619;51.472;6.628;2023-02-01T15:48:58;8.50;;;2.73;;
1258;SDS011;619;51.472;6.628;2023-02-01T15:51:28;15.67;;;3.90;;
1258;SDS011;619;51.472;6.628;2023-02-01T15:54:04;12.37;;;3.43;;
1258;SDS011;619;51.472;6.628;2023-02-01T15:56:39;10.70;;;3.17;;
1258;SDS011;619;51.472;6.628;2023-02-01T15:59:18;9.80;;;3.90;;
1258;SDS011;619;51.472;6.628;2023-02-01T16:01:44;13.27;;;4.20;;
1258;SDS011;619;51.472;6.628;2023-02-01T16:04:16;7.60;;;2.27;;
1258;SDS011;619;51.472;6.628;2023-02-01T16:06:49;14.80;;;4.17;;
1258;SDS011;619;51.472;6.628;2023-02-01T16:09:16;11.83;;;3.37;;
1258;SDS011;619;51.472;6.628;2023-02-01T16:14:15;13.60;;;3.80;;
1258;SDS011;619;51.472;6.628;2023-02-01T16:16:41;7.20;;;3.13;;
1258;SDS011;619;51.472;6.628;2023-02-01T16:19:07;13.17;;;3.83;;
1258;SDS011;619;51.472;6.628;2023-02-01T16:21:33;17.87;;;3.87;;
1258;SDS011;619;51.472;6.628;2023-02-01T16:23:59;8.47;;;3.57;;
1258;SDS011;619;51.472;6.628;2023-02-01T16:26:31;10.83;;;4.83;;
1258;SDS011;619;51.472;6.628;2023-02-01T16:28:59;10.07;;;3.40;;
1258;SDS011;619;51.472;6.628;2023-02-01T16:31:33;14.43;;;4.20;;
1258;SDS011;619;51.472;6.628;2023-02-01T16:34:03;9.20;;;3.00;;
1258;SDS011;619;51.472;6.628;2023-02-01T16:36:30;13.03;;;4.60;;
1258;SDS011;619;51.472;6.628;2023-02-01T16:38:56;8.53;;;3.00;;
1258;SDS011;619;51.472;6.628;2023-02-01T16:41:24;12.90;;;3.37;;
1258;SDS011;619;51.472;6.628;2023-02-01T16:43:55;9.97;;;3.03;;
1258;SDS011;619;51.472;6.628;2023-02-01T16:46:22;13.00;;;2.90;;
1258;SDS011;619;51.472;6.628;2023-02-01T16:48:54;11.00;;;4.17;;
1258;SDS011;619;51.472;6.628;2023-02-01T16:51:20;13.57;;;3.33;;
1258;SDS011;619;51.472;6.628;2023-02-01T16:53:46;17.00;;;3.60;;
1258;SDS011;619;51.472;6.628;2023-02-01T16:58:42;11.17;;;3.40;;
1258;SDS011;619;51.472;6.628;2023-02-01T17:01:11;10.70;;;4.30;;
1258;SDS011;619;51.472;6.628;2023-02-01T17:03:38;12.07;;;3.30;;
1258;SDS011;619;51.472;6.628;2023-02-01T17:06:04;10.50;;;4.00;;
1258;SDS011;619;51.472;6.628;2023-02-01T17:08:32;10.67;;;3.67;;
1258;SDS011;619;51.472;6.628;2023-02-01T17:10:58;8.80;;;2.80;;
1258;SDS011;619;51.472;6.628;2023-02-01T17:13:24;8.33;;;3.57;;
1258;SDS011;619;51.472;6.628;2023-02-01T17:15:56;14.97;;;4.00;;
1258;SDS011;619;51.472;6.628;2023-02-01T17:18:22;11.37;;;4.00;;
1258;SDS011;619;51.472;6.628;2023-02-01T17:20:50;7.47;;;3.40;;
1258;SDS011;619;51.472;6.628;2023-02-01T17:23:17;12.37;;;4.57;;
1258;SDS011;619;51.472;6.628;2023-02-01T17:25:43;17.73;;;3.50;;
1258;SDS011;619;51.472;6.628;2023-02-01T17:28:12;12.10;;;3.63;;
1258;SDS011;619;51.472;6.628;2023-02-01T17:30:40;10.97;;;3.63;;
1258;SDS011;619;51.472;6.628;2023-02-01T17:33:28;9.17;;;3.13;;
1258;SDS011;619;51.472;6.628;2023-02-01T17:35:54;13.03;;;3.53;;
1258;SDS011;619;51.472;6.628;2023-02-01T17:38:21;7.50;;;3.30;;
1258;SDS011;619;51.472;6.628;2023-02-01T17:40:47;11.47;;;3.80;;
1258;SDS011;619;51.472;6.628;2023-02-01T17:43:17;12.43;;;3.43;;
1258;SDS011;619;51.472;6.628;2023-02-01T17:48:51;13.40;;;4.67;;
1258;SDS011;619;51.472;6.628;2023-02-01T17:51:18;15.63;;;4.60;;
1258;SDS011;619;51.472;6.628;2023-02-01T17:53:47;11.53;;;4.07;;
1258;SDS011;619;51.472;6.628;2023-02-01T17:56:18;14.00;;;3.77;;
1258;SDS011;619;51.472;6.628;2023-02-01T17:58:44;21.97;;;3.93;;
1258;SDS011;619;51.472;6.628;2023-02-01T18:01:19;11.40;;;3.03;;
1258;SDS011;619;51.472;6.628;2023-02-01T18:03:48;8.17;;;3.80;;
1258;SDS011;619;51.472;6.628;2023-02-01T18:06:15;12.87;;;5.30;;
1258;SDS011;619;51.472;6.628;2023-02-01T18:08:44;9.43;;;4.17;;